sensor_id;sensor_type;location;lat;lon;timestamp;pressure;altitude;pressure_sealevel;temperature;humidity
64792;BME280;51226;47.504;19.074;2022-10-15T00:00:44;100472.78;;;14.11;71.72
64792;BME280;51226;47.504;19.074;2022-10-15T00:04:03;100468.31;;;14.08;71.84
64792;BME280;51226;47.504;19.074;2022-10-15T00:07:06;100468.31;;;14.08;71.84
64792;BME280;51226;47.504;19.074;2022-10-15T00:10:09;100463.03;;;14.05;71.91
64792;BME280;51226;47.504;19.074;2022-10-15T00:13:11;100467.25;;;14.00;72.12
64792;BME280;51226;47.504;19.074;2022-10-15T00:16:17;100473.28;;;13.96;72.23
64792;BME280;51226;47.504;19.074;2022-10-15T00:19:19;100472.41;;;13.95;72.18
64792;BME280;51226;47.504;19.074;2022-10-15T00:22:22;100469.69;;;13.92;72.28
64792;BME280;51226;47.504;19.074;2022-10-15T00:25:25;100473.09;;;13.89;72.31
64792;BME280;51226;47.504;19.074;2022-10-15T00:28:28;100468.66;;;13.85;72.46
64792;BME280;51226;47.504;19.074;2022-10-15T00:31:36;100470.34;;;13.83;72.49
64792;BME280;51226;47.504;19.074;2022-10-15T00:34:40;100466.69;;;13.77;72.71
64792;BME280;51226;47.504;19.074;2022-10-15T00:37:43;100464.09;;;13.78;72.63
64792;BME280;51226;47.504;19.074;2022-10-15T00:40:47;100460.47;;;13.75;72.73
64792;BME280;51226;47.504;19.074;2022-10-15T00:43:58;100456.09;;;13.74;72.79
64792;BME280;51226;47.504;19.074;2022-10-15T00:50:24;100452.56;;;13.71;72.92
64792;BME280;51226;47.504;19.074;2022-10-15T00:53:28;100448.19;;;13.72;72.84
64792;BME280;51226;47.504;19.074;2022-10-15T00:56:32;100446.34;;;13.68;72.95
64792;BME280;51226;47.504;19.074;2022-10-15T00:59:38;100439.25;;;13.64;73.09
64792;BME280;51226;47.504;19.074;2022-10-15T01:02:44;100442.62;;;13.60;73.29
64792;BME280;51226;47.504;19.074;2022-10-15T01:05:48;100437.37;;;13.58;73.33
64792;BME280;51226;47.504;19.074;2022-10-15T01:08:53;100431.13;;;13.55;73.41
64792;BME280;51226;47.504;19.074;2022-10-15T01:11:56;100438.06;;;13.52;73.44
64792;BME280;51226;47.504;19.074;2022-10-15T01:15:16;100439.69;;;13.47;73.58
64792;BME280;51226;47.504;19.074;2022-10-15T01:18:31;100435.28;;;13.46;73.58
64792;BME280;51226;47.504;19.074;2022-10-15T01:27:53;100442.78;;;13.32;73.76
64792;BME280;51226;47.504;19.074;2022-10-15T01:31:01;100439.19;;;13.30;73.77
64792;BME280;51226;47.504;19.074;2022-10-15T01:37:29;100441.50;;;13.20;74.18
64792;BME280;51226;47.504;19.074;2022-10-15T01:40:54;100441.44;;;13.16;74.17
64792;BME280;51226;47.504;19.074;2022-10-15T01:44:21;100436.19;;;13.16;74.17
64792;BME280;51226;47.504;19.074;2022-10-15T01:47:35;100426.41;;;13.11;74.42
64792;BME280;51226;47.504;19.074;2022-10-15T01:50:42;100434.13;;;13.06;74.52
64792;BME280;51226;47.504;19.074;2022-10-15T01:53:49;100428.84;;;13.03;74.64
64792;BME280;51226;47.504;19.074;2022-10-15T01:56:52;100424.44;;;13.02;74.72
64792;BME280;51226;47.504;19.074;2022-10-15T01:59:56;100423.50;;;13.00;74.70
64792;BME280;51226;47.504;19.074;2022-10-15T02:03:00;100426.97;;;12.99;74.78
64792;BME280;51226;47.504;19.074;2022-10-15T02:06:07;100426.06;;;12.98;74.73
64792;BME280;51226;47.504;19.074;2022-10-15T02:09:26;100428.38;;;12.88;75.13
64792;BME280;51226;47.504;19.074;2022-10-15T02:19:51;100442.31;;;12.87;75.14
64792;BME280;51226;47.504;19.074;2022-10-15T02:23:03;100431.75;;;12.84;75.19
64792;BME280;51226;47.504;19.074;2022-10-15T02:26:10;100432.59;;;12.83;75.21
64792;BME280;51226;47.504;19.074;2022-10-15T02:29:17;100430.63;;;12.75;75.51
64792;BME280;51226;47.504;19.074;2022-10-15T02:32:23;100442.03;;;12.77;75.49
64792;BME280;51226;47.504;19.074;2022-10-15T02:35:28;100432.28;;;12.72;75.61
64792;BME280;51226;47.504;19.074;2022-10-15T02:38:31;100426.13;;;12.70;75.79
64792;BME280;51226;47.504;19.074;2022-10-15T02:41:34;100427.00;;;12.70;75.88
64792;BME280;51226;47.504;19.074;2022-10-15T02:44:37;100432.28;;;12.72;75.86
64792;BME280;51226;47.504;19.074;2022-10-15T02:47:41;100432.28;;;12.72;75.86
64792;BME280;51226;47.504;19.074;2022-10-15T02:50:44;100425.16;;;12.68;76.03
64792;BME280;51226;47.504;19.074;2022-10-15T02:53:48;100426.91;;;12.67;76.05
64792;BME280;51226;47.504;19.074;2022-10-15T02:56:50;100429.50;;;12.67;76.10
64792;BME280;51226;47.504;19.074;2022-10-15T02:59:53;100423.09;;;12.57;76.71
64792;BME280;51226;47.504;19.074;2022-10-15T03:02:56;100416.84;;;12.52;77.01
64792;BME280;51226;47.504;19.074;2022-10-15T03:06:00;100416.91;;;12.54;77.08
64792;BME280;51226;47.504;19.074;2022-10-15T03:09:03;100412.50;;;12.53;77.25
64792;BME280;51226;47.504;19.074;2022-10-15T03:12:06;100407.19;;;12.50;77.49
64792;BME280;51226;47.504;19.074;2022-10-15T03:15:09;100409.00;;;12.52;77.52
64792;BME280;51226;47.504;19.074;2022-10-15T03:18:12;100418.50;;;12.49;77.66
64792;BME280;51226;47.504;19.074;2022-10-15T03:21:15;100416.63;;;12.45;77.88
64792;BME280;51226;47.504;19.074;2022-10-15T03:24:18;100411.41;;;12.46;77.97
64792;BME280;51226;47.504;19.074;2022-10-15T03:27:21;100412.47;;;12.51;77.86
64792;BME280;51226;47.504;19.074;2022-10-15T03:30:24;100401.97;;;12.50;77.83
64792;BME280;51226;47.504;19.074;2022-10-15T03:33:29;100406.34;;;12.51;77.75
64792;BME280;51226;47.504;19.074;2022-10-15T03:36:32;100401.09;;;12.51;77.70
64792;BME280;51226;47.504;19.074;2022-10-15T03:39:35;100407.19;;;12.50;77.63
64792;BME280;51226;47.504;19.074;2022-10-15T03:42:40;100415.94;;;12.50;77.49
64792;BME280;51226;47.504;19.074;2022-10-15T03:45:43;100417.63;;;12.48;77.38
64792;BME280;51226;47.504;19.074;2022-10-15T03:48:49;100415.88;;;12.49;77.33
64792;BME280;51226;47.504;19.074;2022-10-15T03:51:52;100418.28;;;12.42;77.56
64792;BME280;51226;47.504;19.074;2022-10-15T03:54:56;100419.94;;;12.39;77.73
64792;BME280;51226;47.504;19.074;2022-10-15T03:57:59;100423.09;;;12.29;78.22
64792;BME280;51226;47.504;19.074;2022-10-15T04:01:10;100428.38;;;12.30;78.31
64792;BME280;51226;47.504;19.074;2022-10-15T04:04:13;100421.47;;;12.32;78.21
64792;BME280;51226;47.504;19.074;2022-10-15T04:07:16;100415.31;;;12.30;78.27
64792;BME280;51226;47.504;19.074;2022-10-15T04:10:19;100410.19;;;12.33;78.21
64792;BME280;51226;47.504;19.074;2022-10-15T04:13:22;100410.19;;;12.33;78.24
64792;BME280;51226;47.504;19.074;2022-10-15T04:16:25;100397.97;;;12.34;78.29
64792;BME280;51226;47.504;19.074;2022-10-15T04:19:28;100405.78;;;12.32;78.29
64792;BME280;51226;47.504;19.074;2022-10-15T04:22:33;100400.44;;;12.29;78.37
64792;BME280;51226;47.504;19.074;2022-10-15T04:25:36;100404.81;;;12.29;78.28
64792;BME280;51226;47.504;19.074;2022-10-15T04:28:39;100413.47;;;12.28;78.44
64792;BME280;51226;47.504;19.074;2022-10-15T04:31:42;100408.25;;;12.28;78.29
64792;BME280;51226;47.504;19.074;2022-10-15T04:34:48;100402.97;;;12.26;78.26
64792;BME280;51226;47.504;19.074;2022-10-15T04:37:52;100411.50;;;12.20;78.40
64792;BME280;51226;47.504;19.074;2022-10-15T04:41:04;100405.47;;;12.21;78.26
64792;BME280;51226;47.504;19.074;2022-10-15T04:44:08;100424.63;;;12.22;78.00
64792;BME280;51226;47.504;19.074;2022-10-15T04:47:12;100430.16;;;12.04;78.72
64792;BME280;51226;47.504;19.074;2022-10-15T04:50:15;100424.75;;;11.99;78.95
64792;BME280;51226;47.504;19.074;2022-10-15T04:53:35;100420.50;;;12.01;78.87
64792;BME280;51226;47.504;19.074;2022-10-15T04:56:38;100418.75;;;12.02;78.93
64792;BME280;51226;47.504;19.074;2022-10-15T04:59:41;100421.47;;;12.05;78.78
64792;BME280;51226;47.504;19.074;2022-10-15T05:02:48;100419.03;;;12.10;78.55
64792;BME280;51226;47.504;19.074;2022-10-15T05:05:51;100417.25;;;12.09;78.47
64792;BME280;51226;47.504;19.074;2022-10-15T05:08:54;100415.50;;;12.09;78.45
64792;BME280;51226;47.504;19.074;2022-10-15T05:11:58;100417.34;;;12.12;78.38
64792;BME280;51226;47.504;19.074;2022-10-15T05:15:01;100421.97;;;12.20;77.93
64792;BME280;51226;47.504;19.074;2022-10-15T05:18:04;100428.94;;;12.20;77.80
64792;BME280;51226;47.504;19.074;2022-10-15T05:21:08;100435.00;;;12.19;77.66
64792;BME280;51226;47.504;19.074;2022-10-15T05:24:11;100430.63;;;12.18;77.74
64792;BME280;51226;47.504;19.074;2022-10-15T05:27:14;100439.63;;;12.28;76.73
64792;BME280;51226;47.504;19.074;2022-10-15T05:30:17;100436.72;;;12.18;77.30
64792;BME280;51226;47.504;19.074;2022-10-15T05:33:20;100436.78;;;12.20;76.98
64792;BME280;51226;47.504;19.074;2022-10-15T05:36:27;100425.56;;;12.24;76.67
64792;BME280;51226;47.504;19.074;2022-10-15T05:39:31;100427.47;;;12.28;76.09
64792;BME280;51226;47.504;19.074;2022-10-15T05:42:34;100427.56;;;12.33;76.04
64792;BME280;51226;47.504;19.074;2022-10-15T05:45:36;100424.13;;;12.34;75.67
64792;BME280;51226;47.504;19.074;2022-10-15T05:48:39;100415.63;;;12.41;75.12
64792;BME280;51226;47.504;19.074;2022-10-15T05:51:42;100427.34;;;12.25;76.11
64792;BME280;51226;47.504;19.074;2022-10-15T05:54:45;100423.94;;;12.28;75.98
64792;BME280;51226;47.504;19.074;2022-10-15T05:57:48;100436.22;;;12.30;75.46
64792;BME280;51226;47.504;19.074;2022-10-15T06:00:57;100437.22;;;12.34;75.58
64792;BME280;51226;47.504;19.074;2022-10-15T06:04:00;100433.06;;;12.40;75.30
64792;BME280;51226;47.504;19.074;2022-10-15T06:07:05;100441.09;;;12.47;75.05
64792;BME280;51226;47.504;19.074;2022-10-15T06:10:07;100445.72;;;12.55;74.77
64792;BME280;51226;47.504;19.074;2022-10-15T06:13:11;100447.72;;;12.64;74.50
64792;BME280;51226;47.504;19.074;2022-10-15T06:16:14;100455.13;;;12.77;73.88
64792;BME280;51226;47.504;19.074;2022-10-15T06:19:24;100464.19;;;12.89;73.46
64792;BME280;51226;47.504;19.074;2022-10-15T06:22:29;100461.84;;;12.98;72.78
64792;BME280;51226;47.504;19.074;2022-10-15T06:25:32;100469.12;;;13.08;72.20
64792;BME280;51226;47.504;19.074;2022-10-15T06:28:36;100472.09;;;13.21;71.45
64792;BME280;51226;47.504;19.074;2022-10-15T06:31:39;100470.69;;;13.32;70.88
64792;BME280;51226;47.504;19.074;2022-10-15T06:34:42;100475.06;;;13.33;70.81
64792;BME280;51226;47.504;19.074;2022-10-15T06:37:46;100482.44;;;13.46;70.30
64792;BME280;51226;47.504;19.074;2022-10-15T06:40:48;100474.56;;;13.45;70.32
64792;BME280;51226;47.504;19.074;2022-10-15T06:43:51;100478.91;;;13.44;70.38
64792;BME280;51226;47.504;19.074;2022-10-15T06:46:58;100473.06;;;13.55;69.94
64792;BME280;51226;47.504;19.074;2022-10-15T06:50:02;100480.34;;;13.65;69.54
64792;BME280;51226;47.504;19.074;2022-10-15T06:53:07;100482.16;;;13.67;68.78
64792;BME280;51226;47.504;19.074;2022-10-15T06:56:10;100489.44;;;13.79;68.94
64792;BME280;51226;47.504;19.074;2022-10-15T06:59:13;100483.19;;;14.07;68.11
64792;BME280;51226;47.504;19.074;2022-10-15T07:02:16;100490.09;;;14.39;67.20
64792;BME280;51226;47.504;19.074;2022-10-15T07:05:21;100485.53;;;14.68;66.14
64792;BME280;51226;47.504;19.074;2022-10-15T07:08:24;100493.06;;;14.91;64.86
64792;BME280;51226;47.504;19.074;2022-10-15T07:11:29;100495.19;;;15.09;63.78
64792;BME280;51226;47.504;19.074;2022-10-15T07:14:31;100502.56;;;15.25;62.98
64792;BME280;51226;47.504;19.074;2022-10-15T07:17:35;100499.53;;;15.49;62.11
64792;BME280;51226;47.504;19.074;2022-10-15T07:20:40;100506.34;;;15.40;61.53
64792;BME280;51226;47.504;19.074;2022-10-15T07:23:43;100511.91;;;15.55;61.89
64792;BME280;51226;47.504;19.074;2022-10-15T07:26:46;100512.78;;;16.00;60.07
64792;BME280;51226;47.504;19.074;2022-10-15T07:29:49;100503.72;;;15.84;60.26
64792;BME280;51226;47.504;19.074;2022-10-15T07:32:52;100495.25;;;15.54;61.45
64792;BME280;51226;47.504;19.074;2022-10-15T07:35:54;100490.88;;;16.01;59.74
64792;BME280;51226;47.504;19.074;2022-10-15T07:38:57;100492.59;;;16.54;58.73
64792;BME280;51226;47.504;19.074;2022-10-15T07:42:00;100486.84;;;17.47;56.44
64792;BME280;51226;47.504;19.074;2022-10-15T07:45:03;100488.28;;;19.18;51.13
64792;BME280;51226;47.504;19.074;2022-10-15T07:48:06;100477.84;;;20.98;46.61
64792;BME280;51226;47.504;19.074;2022-10-15T07:51:09;100477.28;;;23.01;42.24
64792;BME280;51226;47.504;19.074;2022-10-15T07:54:13;100479.09;;;25.23;37.26
64792;BME280;51226;47.504;19.074;2022-10-15T07:57:16;100475.84;;;27.57;31.89
64792;BME280;51226;47.504;19.074;2022-10-15T08:00:18;100474.37;;;30.63;27.12
64792;BME280;51226;47.504;19.074;2022-10-15T08:03:21;100472.16;;;34.40;22.92
64792;BME280;51226;47.504;19.074;2022-10-15T08:06:24;100485.41;;;36.30;19.49
64792;BME280;51226;47.504;19.074;2022-10-15T08:09:27;100478.16;;;36.44;19.62
64792;BME280;51226;47.504;19.074;2022-10-15T08:12:30;100478.25;;;36.55;19.00
64792;BME280;51226;47.504;19.074;2022-10-15T08:15:33;100478.38;;;36.41;19.00
64792;BME280;51226;47.504;19.074;2022-10-15T08:18:35;100485.38;;;36.96;18.83
64792;BME280;51226;47.504;19.074;2022-10-15T08:21:39;100488.63;;;37.27;18.59
64792;BME280;51226;47.504;19.074;2022-10-15T08:24:47;100493.91;;;35.84;19.34
64792;BME280;51226;47.504;19.074;2022-10-15T08:27:52;100482.69;;;33.67;22.22
64792;BME280;51226;47.504;19.074;2022-10-15T08:30:59;100486.91;;;32.90;22.56
64792;BME280;51226;47.504;19.074;2022-10-15T08:34:07;100483.50;;;31.97;23.78
64792;BME280;51226;47.504;19.074;2022-10-15T08:37:10;100475.88;;;32.77;23.18
64792;BME280;51226;47.504;19.074;2022-10-15T08:40:14;100476.97;;;34.35;21.33
64792;BME280;51226;47.504;19.074;2022-10-15T08:43:38;100471.06;;;32.99;22.67
64792;BME280;51226;47.504;19.074;2022-10-15T08:46:51;100469.06;;;32.70;22.75
64792;BME280;51226;47.504;19.074;2022-10-15T08:49:58;100473.63;;;29.51;26.79
64792;BME280;51226;47.504;19.074;2022-10-15T08:53:04;100468.94;;;30.44;26.06
64792;BME280;51226;47.504;19.074;2022-10-15T08:56:18;100475.97;;;33.09;22.57
64792;BME280;51226;47.504;19.074;2022-10-15T08:59:42;100476.69;;;31.52;23.93
64792;BME280;51226;47.504;19.074;2022-10-15T09:03:04;100476.00;;;30.04;26.29
64792;BME280;51226;47.504;19.074;2022-10-15T09:09:30;100475.75;;;30.10;25.66
64792;BME280;51226;47.504;19.074;2022-10-15T09:12:58;100476.81;;;27.83;29.68
64792;BME280;51226;47.504;19.074;2022-10-15T09:16:15;100486.16;;;28.26;29.14
64792;BME280;51226;47.504;19.074;2022-10-15T09:19:20;100480.63;;;28.31;28.93
64792;BME280;51226;47.504;19.074;2022-10-15T09:22:27;100498.94;;;27.89;29.70
64792;BME280;51226;47.504;19.074;2022-10-15T09:25:34;100492.19;;;28.06;29.58
64792;BME280;51226;47.504;19.074;2022-10-15T09:28:58;100490.06;;;27.87;29.50
64792;BME280;51226;47.504;19.074;2022-10-15T09:35:21;100489.66;;;27.43;30.53
64792;BME280;51226;47.504;19.074;2022-10-15T09:45:21;100478.56;;;27.24;30.86
64792;BME280;51226;47.504;19.074;2022-10-15T09:48:31;100478.53;;;26.94;31.48
64792;BME280;51226;47.504;19.074;2022-10-15T09:51:47;100485.88;;;26.53;31.82
64792;BME280;51226;47.504;19.074;2022-10-15T09:55:16;100487.97;;;25.26;33.97
64792;BME280;51226;47.504;19.074;2022-10-15T09:58:54;100491.59;;;25.64;33.82
64792;BME280;51226;47.504;19.074;2022-10-15T10:05:19;100490.44;;;25.76;33.64
64792;BME280;51226;47.504;19.074;2022-10-15T10:08:24;100476.81;;;26.24;33.08
64792;BME280;51226;47.504;19.074;2022-10-15T10:11:46;100477.00;;;26.51;32.72
64792;BME280;51226;47.504;19.074;2022-10-15T10:15:24;100479.31;;;26.67;32.45
64792;BME280;51226;47.504;19.074;2022-10-15T10:18:29;100465.72;;;26.74;32.59
64792;BME280;51226;47.504;19.074;2022-10-15T10:21:36;100470.53;;;26.93;32.43
64792;BME280;51226;47.504;19.074;2022-10-15T10:24:40;100471.34;;;27.26;31.72
64792;BME280;51226;47.504;19.074;2022-10-15T10:27:48;100471.72;;;27.14;31.87
64792;BME280;51226;47.504;19.074;2022-10-15T10:34:01;100465.44;;;26.85;32.28
64792;BME280;51226;47.504;19.074;2022-10-15T10:37:04;100465.78;;;26.71;32.09
64792;BME280;51226;47.504;19.074;2022-10-15T10:40:38;100459.25;;;26.49;32.09
64792;BME280;51226;47.504;19.074;2022-10-15T10:43:54;100444.69;;;25.88;32.83
64792;BME280;51226;47.504;19.074;2022-10-15T10:47:16;100441.88;;;25.15;34.12
64792;BME280;51226;47.504;19.074;2022-10-15T10:50:30;100439.94;;;24.80;34.80
64792;BME280;51226;47.504;19.074;2022-10-15T10:53:38;100430.16;;;24.78;35.10
64792;BME280;51226;47.504;19.074;2022-10-15T10:56:43;100424.34;;;24.59;35.35
64792;BME280;51226;47.504;19.074;2022-10-15T10:59:51;100436.13;;;24.45;35.68
64792;BME280;51226;47.504;19.074;2022-10-15T11:02:55;100435.41;;;23.82;36.62
64792;BME280;51226;47.504;19.074;2022-10-15T11:09:51;100415.97;;;23.13;38.06
64792;BME280;51226;47.504;19.074;2022-10-15T11:16:44;100425.62;;;23.20;37.88
64792;BME280;51226;47.504;19.074;2022-10-15T11:29:55;100408.16;;;22.14;38.59
64792;BME280;51226;47.504;19.074;2022-10-15T11:36:55;100392.44;;;21.86;39.40
64792;BME280;51226;47.504;19.074;2022-10-15T11:44:40;100377.69;;;21.48;39.04
64792;BME280;51226;47.504;19.074;2022-10-15T11:51:13;100385.19;;;20.47;41.65
64792;BME280;51226;47.504;19.074;2022-10-15T11:57:32;100379.06;;;20.24;42.87
64792;BME280;51226;47.504;19.074;2022-10-15T12:00:41;100371.97;;;20.29;42.94
64792;BME280;51226;47.504;19.074;2022-10-15T12:04:00;100374.59;;;20.43;43.43
64792;BME280;51226;47.504;19.074;2022-10-15T12:07:06;100378.09;;;20.66;42.39
64792;BME280;51226;47.504;19.074;2022-10-15T12:20:15;100366.59;;;20.75;40.79
64792;BME280;51226;47.504;19.074;2022-10-15T12:23:40;100362.22;;;20.46;40.79
64792;BME280;51226;47.504;19.074;2022-10-15T12:26:43;100360.47;;;20.41;41.16
64792;BME280;51226;47.504;19.074;2022-10-15T12:29:51;100359.56;;;20.49;41.09
64792;BME280;51226;47.504;19.074;2022-10-15T12:32:54;100360.44;;;20.67;41.27
64792;BME280;51226;47.504;19.074;2022-10-15T12:36:05;100357.72;;;20.73;41.35
64792;BME280;51226;47.504;19.074;2022-10-15T12:39:22;100362.16;;;20.79;40.85
64792;BME280;51226;47.504;19.074;2022-10-15T12:42:53;100352.44;;;20.73;40.97
64792;BME280;51226;47.504;19.074;2022-10-15T12:46:02;100352.47;;;20.70;40.82
64792;BME280;51226;47.504;19.074;2022-10-15T12:52:55;100356.00;;;20.69;40.84
64792;BME280;51226;47.504;19.074;2022-10-15T13:00:18;100338.28;;;20.82;40.97
64792;BME280;51226;47.504;19.074;2022-10-15T13:03:37;100333.84;;;20.88;40.68
64792;BME280;51226;47.504;19.074;2022-10-15T13:06:44;100332.94;;;20.86;40.65
64792;BME280;51226;47.504;19.074;2022-10-15T13:09:47;100334.78;;;20.75;40.66
64792;BME280;51226;47.504;19.074;2022-10-15T13:12:56;100337.47;;;20.66;40.62
64792;BME280;51226;47.504;19.074;2022-10-15T13:16:04;100350.72;;;20.57;40.96
64792;BME280;51226;47.504;19.074;2022-10-15T13:22:37;100345.50;;;20.26;41.93
64792;BME280;51226;47.504;19.074;2022-10-15T13:25:41;100346.41;;;20.17;42.38
64792;BME280;51226;47.504;19.074;2022-10-15T13:28:44;100347.31;;;20.11;42.51
64792;BME280;51226;47.504;19.074;2022-10-15T13:31:47;100342.88;;;20.09;42.58
64792;BME280;51226;47.504;19.074;2022-10-15T13:34:51;100349.09;;;19.97;42.80
64792;BME280;51226;47.504;19.074;2022-10-15T13:37:57;100350.00;;;19.91;43.10
64792;BME280;51226;47.504;19.074;2022-10-15T13:41:00;100345.56;;;19.92;43.06
64792;BME280;51226;47.504;19.074;2022-10-15T13:44:03;100341.16;;;19.78;44.06
64792;BME280;51226;47.504;19.074;2022-10-15T13:50:38;100355.25;;;19.68;43.27
64792;BME280;51226;47.504;19.074;2022-10-15T13:53:41;100364.06;;;19.67;43.44
64792;BME280;51226;47.504;19.074;2022-10-15T13:56:54;100361.41;;;19.64;43.52
64792;BME280;51226;47.504;19.074;2022-10-15T13:59:59;100364.06;;;19.56;43.40
64792;BME280;51226;47.504;19.074;2022-10-15T14:03:19;100356.13;;;19.55;43.32
64792;BME280;51226;47.504;19.074;2022-10-15T14:12:31;100349.06;;;19.51;43.59
64792;BME280;51226;47.504;19.074;2022-10-15T14:16:00;100351.72;;;19.54;43.43
64792;BME280;51226;47.504;19.074;2022-10-15T14:19:18;100346.41;;;19.40;43.68
64792;BME280;51226;47.504;19.074;2022-10-15T14:22:25;100341.13;;;19.37;43.89
64792;BME280;51226;47.504;19.074;2022-10-15T14:25:29;100349.03;;;19.48;43.54
64792;BME280;51226;47.504;19.074;2022-10-15T14:28:32;100342.88;;;19.39;44.02
64792;BME280;51226;47.504;19.074;2022-10-15T14:31:39;100341.97;;;19.34;44.77
64792;BME280;51226;47.504;19.074;2022-10-15T14:34:47;100344.63;;;19.33;44.98
64792;BME280;51226;47.504;19.074;2022-10-15T14:38:00;100339.34;;;19.28;44.85
64792;BME280;51226;47.504;19.074;2022-10-15T14:41:26;100342.84;;;19.19;44.83
64792;BME280;51226;47.504;19.074;2022-10-15T14:44:46;100336.69;;;19.11;45.12
64792;BME280;51226;47.504;19.074;2022-10-15T14:47:56;100334.03;;;19.08;45.54
64792;BME280;51226;47.504;19.074;2022-10-15T14:51:03;100334.00;;;19.02;46.00
64792;BME280;51226;47.504;19.074;2022-10-15T14:54:18;100340.12;;;18.99;46.25
64792;BME280;51226;47.504;19.074;2022-10-15T14:57:24;100341.91;;;18.97;46.64
64792;BME280;51226;47.504;19.074;2022-10-15T15:00:32;100346.28;;;18.91;46.80
64792;BME280;51226;47.504;19.074;2022-10-15T15:03:45;100346.28;;;18.84;46.83
64792;BME280;51226;47.504;19.074;2022-10-15T15:06:49;100347.19;;;18.90;47.15
64792;BME280;51226;47.504;19.074;2022-10-15T15:09:54;100342.69;;;18.82;47.53
64792;BME280;51226;47.504;19.074;2022-10-15T15:12:57;100351.50;;;18.77;47.46
64792;BME280;51226;47.504;19.074;2022-10-15T15:16:01;100350.62;;;18.75;47.66
64792;BME280;51226;47.504;19.074;2022-10-15T15:19:07;100353.25;;;18.73;47.40
64792;BME280;51226;47.504;19.074;2022-10-15T15:22:13;100359.37;;;18.64;47.65
64792;BME280;51226;47.504;19.074;2022-10-15T15:25:30;100364.66;;;18.66;47.69
64792;BME280;51226;47.504;19.074;2022-10-15T15:28:35;100369.91;;;18.58;48.09
64792;BME280;51226;47.504;19.074;2022-10-15T15:31:38;100359.31;;;18.54;48.27
64792;BME280;51226;47.504;19.074;2022-10-15T15:34:41;100363.72;;;18.50;48.13
64792;BME280;51226;47.504;19.074;2022-10-15T15:37:44;100361.94;;;18.44;48.42
64792;BME280;51226;47.504;19.074;2022-10-15T15:40:47;100366.31;;;18.44;48.78
64792;BME280;51226;47.504;19.074;2022-10-15T15:43:54;100356.63;;;18.46;48.52
64792;BME280;51226;47.504;19.074;2022-10-15T15:46:56;100361.94;;;18.44;48.55
64792;BME280;51226;47.504;19.074;2022-10-15T15:49:59;100365.38;;;18.37;48.52
64792;BME280;51226;47.504;19.074;2022-10-15T15:53:02;100366.28;;;18.35;48.60
64792;BME280;51226;47.504;19.074;2022-10-15T15:56:06;100371.53;;;18.31;48.33
64792;BME280;51226;47.504;19.074;2022-10-15T15:59:08;100372.34;;;18.20;48.45
64792;BME280;51226;47.504;19.074;2022-10-15T16:02:11;100379.34;;;18.19;48.54
64792;BME280;51226;47.504;19.074;2022-10-15T16:05:15;100377.62;;;18.20;48.55
64792;BME280;51226;47.504;19.074;2022-10-15T16:08:18;100383.72;;;18.15;48.99
64792;BME280;51226;47.504;19.074;2022-10-15T16:11:21;100387.28;;;18.16;49.07
64792;BME280;51226;47.504;19.074;2022-10-15T16:14:24;100389.87;;;18.11;49.29
64792;BME280;51226;47.504;19.074;2022-10-15T16:17:26;100387.22;;;18.10;49.26
64792;BME280;51226;47.504;19.074;2022-10-15T16:20:29;100394.25;;;18.08;49.44
64792;BME280;51226;47.504;19.074;2022-10-15T16:23:32;100398.66;;;18.09;50.48
64792;BME280;51226;47.504;19.074;2022-10-15T16:26:35;100405.59;;;17.99;50.42
64792;BME280;51226;47.504;19.074;2022-10-15T16:29:38;100399.47;;;18.00;50.67
64792;BME280;51226;47.504;19.074;2022-10-15T16:32:40;100417.03;;;17.96;50.48
64792;BME280;51226;47.504;19.074;2022-10-15T16:35:44;100410.88;;;17.94;50.50
64792;BME280;51226;47.504;19.074;2022-10-15T16:38:51;100422.25;;;17.90;50.57
64792;BME280;51226;47.504;19.074;2022-10-15T16:41:55;100418.72;;;17.88;50.75
64792;BME280;51226;47.504;19.074;2022-10-15T16:44:58;100423.13;;;17.88;50.64
64792;BME280;51226;47.504;19.074;2022-10-15T16:48:01;100424.81;;;17.83;50.55
64792;BME280;51226;47.504;19.074;2022-10-15T16:51:09;100430.84;;;17.74;50.93
64792;BME280;51226;47.504;19.074;2022-10-15T16:54:13;100441.38;;;17.68;50.82
64792;BME280;51226;47.504;19.074;2022-10-15T16:57:17;100434.38;;;17.71;51.04
64792;BME280;51226;47.504;19.074;2022-10-15T17:00:21;100441.34;;;17.66;51.04
64792;BME280;51226;47.504;19.074;2022-10-15T17:03:23;100444.00;;;17.66;51.19
64792;BME280;51226;47.504;19.074;2022-10-15T17:06:29;100448.34;;;17.66;51.14
64792;BME280;51226;47.504;19.074;2022-10-15T17:09:31;100450.97;;;17.61;51.16
64792;BME280;51226;47.504;19.074;2022-10-15T17:12:34;100456.22;;;17.59;51.21
64792;BME280;51226;47.504;19.074;2022-10-15T17:15:37;100454.44;;;17.58;51.39
64792;BME280;51226;47.504;19.074;2022-10-15T17:18:41;100459.69;;;17.55;51.59
64792;BME280;51226;47.504;19.074;2022-10-15T17:21:44;100464.16;;;17.59;51.18
64792;BME280;51226;47.504;19.074;2022-10-15T17:24:49;100457.13;;;17.62;51.48
64792;BME280;51226;47.504;19.074;2022-10-15T17:27:55;100457.09;;;17.58;51.38
64792;BME280;51226;47.504;19.074;2022-10-15T17:31:05;100457.00;;;17.52;51.51
64792;BME280;51226;47.504;19.074;2022-10-15T17:34:09;100459.66;;;17.52;51.57
64792;BME280;51226;47.504;19.074;2022-10-15T17:37:14;100470.25;;;17.57;51.76
64792;BME280;51226;47.504;19.074;2022-10-15T17:40:16;100472.88;;;17.55;51.68
64792;BME280;51226;47.504;19.074;2022-10-15T17:43:19;100478.09;;;17.49;51.99
64792;BME280;51226;47.504;19.074;2022-10-15T17:46:24;100481.59;;;17.48;52.18